Time;durP1;ratioP1;P1;durP2;ratioP2;P2;SDS_P1;SDS_P2;PMS_P1;PMS_P2;Temp;Humidity;BMP_temperature;BMP_pressure;BME280_temperature;BME280_humidity;BME280_pressure;Samples;Min_cycle;Max_cycle;Signal;HPM_P1;HPM_P2
2024/01/10 00:02:01;;;;;;;63.67;20.55;;;;;;;-141.50;100.00;63355.56;5044386;28;20218;-77
2024/01/10 00:04:28;;;;;;;62.80;20.02;;;;;;;-141.50;100.00;63355.56;5044780;28;20045;-77
2024/01/10 00:06:55;;;;;;;60.88;19.77;;;;;;;-141.50;100.00;63355.56;5048171;28;20116;-76
2024/01/10 00:09:22;;;;;;;71.03;21.48;;;;;;;-141.50;100.00;63355.56;5039623;28;20048;-77
2024/01/10 00:11:49;;;;;;;75.80;19.90;;;;;;;-141.50;100.00;63355.56;5036453;28;20049;-77
2024/01/10 00:14:16;;;;;;;69.45;20.42;;;;;;;-141.50;100.00;63355.56;5038481;28;20045;-77
2024/01/10 00:16:44;;;;;;;59.40;20.30;;;;;;;-141.50;100.00;63355.56;5036151;28;20037;-76
2024/01/10 00:19:10;;;;;;;63.58;19.95;;;;;;;-141.50;100.00;63355.56;5034866;28;20042;-76
2024/01/10 00:21:37;;;;;;;70.00;20.67;;;;;;;-141.50;100.00;63355.56;5034147;28;20099;-75
2024/01/10 00:24:04;;;;;;;61.35;18.33;;;;;;;-141.50;100.00;63355.56;5040291;28;20064;-77
2024/01/10 00:26:31;;;;;;;74.70;20.88;;;;;;;-141.50;100.00;63355.56;5041435;28;20044;-76
2024/01/10 00:28:58;;;;;;;57.13;19.98;;;;;;;-141.50;100.00;63355.56;5036667;28;20053;-73
2024/01/10 00:31:30;;;;;;;56.70;19.48;;;;;;;-141.50;100.00;63355.56;5034838;28;20071;-79
2024/01/10 00:33:57;;;;;;;64.35;19.15;;;;;;;-141.50;100.00;63355.56;5033022;28;20037;-77
2024/01/10 00:36:24;;;;;;;61.45;19.55;;;;;;;-141.50;100.00;63355.56;5039345;28;21197;-76
2024/01/10 00:38:51;;;;;;;66.85;19.98;;;;;;;-141.50;100.00;63355.56;5040735;28;20058;-77
2024/01/10 00:41:17;;;;;;;67.32;21.30;;;;;;;-141.50;100.00;63355.56;5032340;28;20546;-76
2024/01/10 00:43:44;;;;;;;66.90;20.48;;;;;;;-141.50;100.00;63355.56;5040291;28;20415;-77
2024/01/10 00:46:11;;;;;;;79.22;20.50;;;;;;;-141.50;100.00;63355.56;5035747;28;20060;-77
2024/01/10 00:48:38;;;;;;;64.43;19.85;;;;;;;-141.50;100.00;63355.56;5037154;28;20045;-75
2024/01/10 00:51:08;;;;;;;64.25;17.95;;;;;;;-141.50;100.00;63355.56;5037132;28;20061;-76
2024/01/10 00:53:38;;;;;;;54.95;18.75;;;;;;;-141.50;100.00;63355.56;5052008;28;22269;-77
2024/01/10 00:56:06;;;;;;;66.85;18.70;;;;;;;-141.50;100.00;63355.56;5041238;28;20567;-75
2024/01/10 00:58:33;;;;;;;60.45;18.85;;;;;;;-141.50;100.00;63355.56;5031727;28;21577;-77
2024/01/10 01:01:00;;;;;;;70.20;18.88;;;;;;;-141.50;100.00;63355.56;5039483;28;20072;-76
2024/01/10 01:03:27;;;;;;;66.00;19.88;;;;;;;-141.50;100.00;63355.56;5043635;28;20054;-76
2024/01/10 01:05:54;;;;;;;65.13;19.45;;;;;;;-141.50;100.00;63355.56;5043842;28;20079;-76
2024/01/10 01:08:21;;;;;;;67.88;19.10;;;;;;;-141.50;100.00;63355.56;5048146;28;20050;-77
2024/01/10 01:10:48;;;;;;;72.55;19.23;;;;;;;-141.50;100.00;63355.56;5039804;28;20068;-79
2024/01/10 01:13:15;;;;;;;73.18;19.95;;;;;;;-141.50;100.00;63355.56;5030011;28;20050;-77
2024/01/10 01:15:43;;;;;;;60.58;19.17;;;;;;;-141.50;100.00;63355.56;5041108;28;20105;-77
2024/01/10 01:18:12;;;;;;;61.80;18.52;;;;;;;-141.50;100.00;63355.56;5032724;28;20046;-77
2024/01/10 01:20:40;;;;;;;57.58;18.27;;;;;;;-141.50;100.00;63355.56;5033935;28;20094;-77
2024/01/10 01:23:07;;;;;;;58.40;17.35;;;;;;;-141.50;100.00;63355.56;5040497;28;20711;-77
2024/01/10 01:25:34;;;;;;;59.22;19.15;;;;;;;-141.50;100.00;63355.56;5053963;28;20064;-78
2024/01/10 01:28:01;;;;;;;69.82;20.02;;;;;;;-141.50;100.00;63355.56;5045549;28;20313;-78
2024/01/10 01:30:27;;;;;;;66.65;19.92;;;;;;;-141.50;100.00;63355.56;5040715;28;20068;-77
2024/01/10 01:32:54;;;;;;;53.13;17.88;;;;;;;-141.50;100.00;63355.56;5039711;28;20045;-76
2024/01/10 01:35:22;;;;;;;65.13;19.45;;;;;;;-141.50;100.00;63355.56;5035540;28;20200;-78
2024/01/10 01:37:49;;;;;;;65.00;20.20;;;;;;;-141.50;100.00;63355.56;5034809;28;20048;-77
2024/01/10 01:40:18;;;;;;;57.97;18.95;;;;;;;-141.50;100.00;63355.56;5039275;28;20100;-77
2024/01/10 01:42:46;;;;;;;59.58;19.45;;;;;;;-141.50;100.00;63355.56;5049474;28;20530;-78
2024/01/10 01:45:13;;;;;;;58.25;19.25;;;;;;;-141.50;100.00;63355.56;5046137;28;20415;-77
2024/01/10 01:47:40;;;;;;;55.33;18.75;;;;;;;-141.50;100.00;63355.56;5022405;28;20045;-77
2024/01/10 01:50:08;;;;;;;65.22;20.35;;;;;;;-141.50;100.00;63355.56;5035645;28;20048;-77
2024/01/10 01:52:36;;;;;;;62.70;19.58;;;;;;;-141.50;100.00;63355.56;5045387;28;20057;-77
2024/01/10 01:55:03;;;;;;;61.20;19.80;;;;;;;-141.50;100.00;63355.56;5046838;28;20049;-77
2024/01/10 01:57:30;;;;;;;63.38;19.23;;;;;;;-141.50;100.00;63355.56;5037701;28;20041;-77
2024/01/10 01:59:57;;;;;;;49.67;18.15;;;;;;;-141.50;100.00;63355.56;5038021;28;20507;-77
2024/01/10 02:02:24;;;;;;;70.00;18.52;;;;;;;-141.50;100.00;63355.56;5044103;28;20061;-76
2024/01/10 02:04:51;;;;;;;68.78;19.17;;;;;;;-141.50;100.00;63355.56;5048564;28;20072;-78
2024/01/10 02:07:21;;;;;;;66.47;20.10;;;;;;;-141.50;100.00;63355.56;5043878;28;20119;-77
2024/01/10 02:09:48;;;;;;;62.25;19.15;;;;;;;-141.50;100.00;63355.56;5036999;28;20531;-76
2024/01/10 02:12:15;;;;;;;58.15;17.40;;;;;;;-141.50;100.00;63355.56;5048036;28;20049;-77
2024/01/10 02:14:42;;;;;;;72.20;20.08;;;;;;;-141.50;100.00;63355.56;5040955;28;20053;-75
2024/01/10 02:17:12;;;;;;;62.17;20.35;;;;;;;-141.50;100.00;63355.56;5036439;28;20499;-76
2024/01/10 02:19:39;;;;;;;64.07;17.70;;;;;;;-141.50;100.00;63355.56;5064210;28;20422;-76
2024/01/10 02:22:06;;;;;;;69.30;19.63;;;;;;;-141.50;100.00;63355.56;5039823;28;20087;-76
2024/01/10 02:24:33;;;;;;;65.30;19.27;;;;;;;-141.50;100.00;63355.56;5047808;28;20045;-77
2024/01/10 02:26:59;;;;;;;55.80;18.27;;;;;;;-141.50;100.00;63355.56;5040846;28;20109;-76
2024/01/10 02:29:26;;;;;;;54.92;17.77;;;;;;;-141.50;100.00;63355.56;5036662;28;20038;-76
2024/01/10 02:31:53;;;;;;;62.67;17.27;;;;;;;-141.50;100.00;63355.56;5044720;28;20100;-76
2024/01/10 02:34:20;;;;;;;56.30;17.92;;;;;;;-141.50;100.00;63355.56;5024587;28;20045;-76
2024/01/10 02:36:47;;;;;;;66.97;19.63;;;;;;;-141.50;100.00;63355.56;5043230;28;20124;-77
2024/01/10 02:39:13;;;;;;;59.88;18.55;;;;;;;-141.50;100.00;63355.56;5038431;28;20474;-77
2024/01/10 02:41:43;;;;;;;58.97;17.63;;;;;;;-141.50;100.00;63355.56;5034050;28;20065;-77
2024/01/10 02:44:10;;;;;;;65.40;18.50;;;;;;;-141.50;100.00;63355.56;5049324;28;20053;-76
2024/01/10 02:46:37;;;;;;;54.15;16.95;;;;;;;-141.50;100.00;63355.56;5044996;28;20044;-76
2024/01/10 02:49:04;;;;;;;59.88;18.52;;;;;;;-141.50;100.00;63355.56;5045676;28;20535;-78
2024/01/10 02:51:31;;;;;;;60.85;19.20;;;;;;;-141.50;100.00;63355.56;5051397;28;20113;-77
2024/01/10 02:53:58;;;;;;;55.45;18.45;;;;;;;-141.50;100.00;63355.56;5061958;28;20139;-77
2024/01/10 02:56:25;;;;;;;64.45;19.60;;;;;;;-141.50;100.00;63355.56;5051141;28;20577;-77
2024/01/10 02:58:52;;;;;;;55.05;17.60;;;;;;;-141.50;100.00;63355.56;5047870;28;20045;-77
2024/01/10 03:01:19;;;;;;;57.92;19.35;;;;;;;-141.50;100.00;63355.56;5045518;28;20049;-77
2024/01/10 03:03:45;;;;;;;54.60;18.05;;;;;;;-141.50;100.00;63355.56;5055698;28;20064;-75
2024/01/10 03:06:12;;;;;;;58.80;17.88;;;;;;;-141.50;100.00;63355.56;5046582;28;20076;-75
2024/01/10 03:08:39;;;;;;;55.75;17.50;;;;;;;-141.50;100.00;63355.56;5027568;28;20053;-75
2024/01/10 03:11:06;;;;;;;59.50;18.42;;;;;;;-141.50;100.00;63355.56;5053182;28;20063;-77
2024/01/10 03:13:33;;;;;;;61.50;17.98;;;;;;;-141.50;100.00;63355.56;5041330;28;20046;-76
2024/01/10 03:16:00;;;;;;;60.85;18.30;;;;;;;-141.50;100.00;63355.56;5041175;28;20124;-78
2024/01/10 03:18:27;;;;;;;68.82;18.10;;;;;;;-141.50;100.00;63355.56;5047057;28;20080;-78
2024/01/10 03:20:54;;;;;;;58.38;18.10;;;;;;;-141.50;100.00;63355.56;5039107;28;20042;-75
2024/01/10 03:23:21;;;;;;;56.58;18.65;;;;;;;-141.50;100.00;63355.56;5012804;28;20528;-74
2024/01/10 03:25:49;;;;;;;57.40;18.63;;;;;;;-141.50;100.00;63355.56;5019430;28;20423;-76
2024/01/10 03:28:17;;;;;;;65.10;19.75;;;;;;;-141.50;100.00;63355.56;5027024;28;20655;-77
2024/01/10 03:30:45;;;;;;;54.90;18.52;;;;;;;-141.50;100.00;63355.56;5021257;28;20044;-77
2024/01/10 03:33:11;;;;;;;61.00;18.30;;;;;;;-141.50;100.00;63355.56;5023259;28;20049;-76
2024/01/10 03:35:38;;;;;;;59.40;17.88;;;;;;;-141.50;100.00;63355.56;5020088;28;20046;-77
2024/01/10 03:38:05;;;;;;;54.85;17.60;;;;;;;-141.50;100.00;63355.56;5027631;28;20056;-76
2024/01/10 03:40:32;;;;;;;51.15;15.57;;;;;;;-141.50;100.00;63355.56;5020703;28;20108;-75
2024/01/10 03:42:59;;;;;;;58.22;17.75;;;;;;;-141.50;100.00;63355.56;5026309;28;20111;-77
2024/01/10 03:45:25;;;;;;;59.83;16.15;;;;;;;-141.50;100.00;63355.56;5028352;28;20042;-74
2024/01/10 03:47:52;;;;;;;47.17;15.65;;;;;;;-141.50;100.00;63355.56;5034707;28;20046;-75
2024/01/10 03:50:19;;;;;;;47.63;15.48;;;;;;;-141.50;100.00;63355.56;5039493;28;20037;-77
2024/01/10 03:52:47;;;;;;;55.20;16.80;;;;;;;-141.50;100.00;63355.56;5046584;28;20096;-77
2024/01/10 03:55:15;;;;;;;51.92;15.73;;;;;;;-141.50;100.00;63355.56;5045233;28;20602;-77
2024/01/10 03:57:42;;;;;;;47.13;15.73;;;;;;;-141.50;100.00;63355.56;5043147;28;20121;-76
2024/01/10 04:00:09;;;;;;;67.68;17.35;;;;;;;-141.50;100.00;63355.56;5043275;28;20056;-78
2024/01/10 04:02:38;;;;;;;53.83;16.80;;;;;;;-141.50;100.00;63355.56;5049505;28;20056;-76
2024/01/10 04:05:10;;;;;;;48.85;16.73;;;;;;;-141.50;100.00;63355.56;5036871;28;20041;-77
2024/01/10 04:07:37;;;;;;;59.70;17.13;;;;;;;-141.50;100.00;63355.56;5051809;28;20102;-76
2024/01/10 04:10:06;;;;;;;51.30;15.80;;;;;;;-141.50;100.00;63355.56;5041321;28;20037;-77
2024/01/10 04:12:33;;;;;;;43.75;15.25;;;;;;;-141.50;100.00;63355.56;5039597;28;20419;-77
2024/01/10 04:15:00;;;;;;;49.72;15.15;;;;;;;-141.50;100.00;63355.56;5043188;28;20045;-76
2024/01/10 04:17:27;;;;;;;54.70;15.93;;;;;;;-141.50;100.00;63355.56;5040587;28;20094;-77
2024/01/10 04:19:54;;;;;;;49.03;14.80;;;;;;;-141.50;100.00;63355.56;5030207;28;20045;-77
2024/01/10 04:22:21;;;;;;;43.17;15.85;;;;;;;-141.50;100.00;63355.56;5051628;28;20049;-75
2024/01/10 04:24:48;;;;;;;53.65;14.77;;;;;;;-141.50;100.00;63355.56;5052580;28;20089;-77
2024/01/10 04:27:15;;;;;;;55.08;15.00;;;;;;;-141.50;100.00;63355.56;5052288;28;20065;-77
2024/01/10 04:29:41;;;;;;;50.90;15.25;;;;;;;-141.50;100.00;63355.56;5056391;28;20076;-78
2024/01/10 04:32:08;;;;;;;56.70;16.13;;;;;;;-141.50;100.00;63355.56;5054611;28;20048;-76
2024/01/10 04:34:35;;;;;;;54.35;16.08;;;;;;;-141.50;100.00;63355.56;5056564;28;20044;-76
2024/01/10 04:37:02;;;;;;;47.10;15.27;;;;;;;-141.50;100.00;63355.56;5043581;28;20527;-76
2024/01/10 04:39:29;;;;;;;48.45;16.35;;;;;;;-141.50;100.00;63355.56;5047842;28;20528;-76
2024/01/10 04:41:56;;;;;;;47.55;15.30;;;;;;;-141.50;100.00;63355.56;5051158;28;20940;-77
2024/01/10 04:44:23;;;;;;;52.95;15.52;;;;;;;-141.50;100.00;63355.56;5039646;28;20476;-76
2024/01/10 04:46:50;;;;;;;49.75;16.27;;;;;;;-141.50;100.00;63355.56;5048519;28;20048;-77
2024/01/10 04:49:16;;;;;;;50.67;15.45;;;;;;;-141.50;100.00;63355.56;5047211;28;20042;-76
2024/01/10 04:51:45;;;;;;;41.03;14.70;;;;;;;-141.50;100.00;63355.56;5041333;28;20045;-77
2024/01/10 04:54:11;;;;;;;50.90;15.13;;;;;;;-141.50;100.00;63355.56;5047633;28;20095;-77
2024/01/10 04:56:38;;;;;;;53.00;15.60;;;;;;;-141.50;100.00;63355.56;5050203;28;20052;-76
2024/01/10 04:59:06;;;;;;;45.00;14.95;;;;;;;-141.50;100.00;63355.56;5041449;28;20606;-77
2024/01/10 05:01:33;;;;;;;46.38;14.52;;;;;;;-141.50;100.00;63355.56;5043009;28;20041;-76
2024/01/10 05:04:00;;;;;;;46.67;14.38;;;;;;;-141.50;100.00;63355.56;5040350;28;20059;-75
2024/01/10 05:06:28;;;;;;;52.75;16.05;;;;;;;-141.50;100.00;63355.56;5045940;28;20144;-77
2024/01/10 05:08:58;;;;;;;45.15;16.08;;;;;;;-141.50;100.00;63355.56;5042836;28;20132;-76
2024/01/10 05:11:25;;;;;;;47.05;14.65;;;;;;;-141.50;100.00;63355.56;5044716;28;20041;-77
2024/01/10 05:13:52;;;;;;;45.28;14.98;;;;;;;-141.50;100.00;63355.56;5042218;28;20460;-77
2024/01/10 05:16:19;;;;;;;50.25;15.95;;;;;;;-141.50;100.00;63355.56;5037973;28;20053;-77
2024/01/10 05:18:46;;;;;;;39.90;14.55;;;;;;;-141.50;100.00;63355.56;5036182;28;20147;-77
2024/01/10 05:21:13;;;;;;;41.92;14.32;;;;;;;-141.50;100.00;63355.56;5038990;28;20045;-76
2024/01/10 05:23:40;;;;;;;46.72;14.65;;;;;;;-141.50;100.00;63355.56;5030025;28;20041;-76
2024/01/10 05:26:07;;;;;;;59.65;15.93;;;;;;;-141.50;100.00;63355.56;5059719;28;20045;-76
2024/01/10 05:28:34;;;;;;;45.47;15.38;;;;;;;-141.50;100.00;63355.56;5050548;28;20049;-78
2024/01/10 05:31:01;;;;;;;46.70;14.52;;;;;;;-141.50;100.00;63355.56;5055595;28;20040;-75
2024/01/10 05:33:28;;;;;;;39.90;14.90;;;;;;;-141.50;100.00;63355.56;5049228;28;20041;-77
2024/01/10 05:35:55;;;;;;;48.97;14.18;;;;;;;-141.50;100.00;63355.56;5028085;28;20041;-78
2024/01/10 05:38:21;;;;;;;43.65;13.88;;;;;;;-141.50;100.00;63355.56;5045608;28;20041;-76
2024/01/10 05:40:48;;;;;;;48.33;14.57;;;;;;;-141.50;100.00;63355.56;5049009;28;20090;-77
2024/01/10 05:43:16;;;;;;;45.38;13.88;;;;;;;-141.50;100.00;63355.56;5050151;28;20154;-76
2024/01/10 05:45:43;;;;;;;56.63;15.75;;;;;;;-141.50;100.00;63355.56;5045623;28;20185;-76
2024/01/10 05:48:10;;;;;;;46.90;14.15;;;;;;;-141.50;100.00;63355.56;5045185;28;20512;-77
2024/01/10 05:50:37;;;;;;;42.40;13.70;;;;;;;-141.50;100.00;63355.56;5047532;28;20125;-77
2024/01/10 05:53:04;;;;;;;46.35;14.88;;;;;;;-141.50;100.00;63355.56;5038063;28;20140;-77
2024/01/10 05:55:31;;;;;;;45.88;15.15;;;;;;;-141.50;100.00;63355.56;5052702;28;20067;-77
2024/01/10 05:57:57;;;;;;;44.10;14.82;;;;;;;-141.50;100.00;63355.56;5043409;28;20044;-77
2024/01/10 06:00:24;;;;;;;50.88;14.13;;;;;;;-141.50;100.00;63355.56;5051989;28;20098;-76
2024/01/10 06:02:51;;;;;;;55.13;15.95;;;;;;;-141.50;100.00;63355.56;5049299;28;20045;-76
2024/01/10 06:05:17;;;;;;;56.13;17.00;;;;;;;-141.50;100.00;63355.56;5048897;28;20048;-76
2024/01/10 06:07:44;;;;;;;48.55;16.98;;;;;;;-141.50;100.00;63355.56;5052858;28;20136;-76
2024/01/10 06:10:11;;;;;;;50.92;16.35;;;;;;;-141.50;100.00;63355.56;5056824;28;20045;-77
2024/01/10 06:12:38;;;;;;;45.47;15.68;;;;;;;-141.50;100.00;63355.56;5053164;28;20091;-75
2024/01/10 06:15:06;;;;;;;49.28;14.40;;;;;;;-141.50;100.00;63355.56;5049551;28;20057;-78
2024/01/10 06:17:33;;;;;;;46.33;14.13;;;;;;;-141.50;100.00;63355.56;5049118;28;20052;-75
2024/01/10 06:20:00;;;;;;;42.67;13.18;;;;;;;-141.50;100.00;63355.56;5046207;28;20052;-76
2024/01/10 06:22:27;;;;;;;50.47;13.73;;;;;;;-141.50;100.00;63355.56;5019858;28;20419;-77
2024/01/10 06:24:56;;;;;;;41.28;12.13;;;;;;;-141.50;100.00;63355.56;5043095;28;20041;-76
2024/01/10 06:27:23;;;;;;;39.90;12.30;;;;;;;-141.50;100.00;63355.56;5048765;28;20056;-76
2024/01/10 06:29:50;;;;;;;41.63;13.50;;;;;;;-141.50;100.00;63355.56;5045945;28;20041;-77
2024/01/10 06:32:16;;;;;;;45.83;15.55;;;;;;;-141.50;100.00;63355.56;5048183;28;20045;-77
2024/01/10 06:34:43;;;;;;;59.90;14.07;;;;;;;-141.50;100.00;63355.56;5048506;28;20045;-77
2024/01/10 06:37:10;;;;;;;46.08;14.38;;;;;;;-141.50;100.00;63355.56;5054782;28;20045;-77
2024/01/10 06:39:37;;;;;;;47.85;14.32;;;;;;;-141.50;100.00;63355.56;5027873;28;20038;-74
2024/01/10 06:42:05;;;;;;;44.20;14.02;;;;;;;-141.50;100.00;63355.56;5050019;28;20080;-76
2024/01/10 06:44:33;;;;;;;43.58;12.95;;;;;;;-141.50;100.00;63355.56;5042159;28;20279;-76
2024/01/10 06:47:00;;;;;;;46.95;14.68;;;;;;;-141.50;100.00;63355.56;5046116;28;20044;-76
2024/01/10 06:49:28;;;;;;;51.30;14.20;;;;;;;-141.50;100.00;63355.56;5036027;28;20060;-76
2024/01/10 06:51:55;;;;;;;49.97;14.60;;;;;;;-141.50;100.00;63355.56;5043691;28;20041;-77
2024/01/10 06:54:22;;;;;;;48.67;14.95;;;;;;;-141.50;100.00;63355.56;5042648;28;20053;-77
2024/01/10 06:56:48;;;;;;;44.80;13.23;;;;;;;-141.50;100.00;63355.56;5039349;28;20053;-75
2024/01/10 06:59:15;;;;;;;42.20;12.30;;;;;;;-141.50;100.00;63355.56;5040798;28;20077;-76
2024/01/10 07:01:42;;;;;;;42.67;12.60;;;;;;;-141.50;100.00;63355.56;5046223;28;20136;-76
2024/01/10 07:04:09;;;;;;;40.20;12.35;;;;;;;-141.50;100.00;63355.56;5041405;28;20107;-76
2024/01/10 07:06:35;;;;;;;37.72;11.80;;;;;;;-141.50;100.00;63355.56;5043317;28;20068;-78
2024/01/10 07:09:02;;;;;;;39.50;11.57;;;;;;;-141.50;100.00;63355.56;5041617;28;20037;-76
2024/01/10 07:11:29;;;;;;;33.42;11.73;;;;;;;-141.50;100.00;63355.56;5039845;28;20072;-77
2024/01/10 07:13:56;;;;;;;36.67;12.20;;;;;;;-141.50;100.00;63355.56;5047143;28;20033;-76
2024/01/10 07:16:23;;;;;;;32.63;11.02;;;;;;;-141.50;100.00;63355.56;5046670;28;20102;-76
2024/01/10 07:18:51;;;;;;;34.38;11.75;;;;;;;-141.50;100.00;63355.56;5046996;28;20068;-76
2024/01/10 07:21:18;;;;;;;31.30;11.10;;;;;;;-141.50;100.00;63355.56;5034534;28;20069;-77
2024/01/10 07:23:45;;;;;;;33.35;10.75;;;;;;;-141.50;100.00;63355.56;5043542;28;20056;-76
2024/01/10 07:26:14;;;;;;;37.22;10.73;;;;;;;-141.50;100.00;63355.56;5049166;28;20574;-75
2024/01/10 07:28:41;;;;;;;27.40;10.55;;;;;;;-141.50;100.00;63355.56;5042040;28;20071;-76
2024/01/10 07:31:11;;;;;;;28.65;9.93;;;;;;;-141.50;100.00;63355.56;5066389;28;20075;-76
2024/01/10 07:33:38;;;;;;;40.67;10.60;;;;;;;-141.50;100.00;63355.56;5043298;28;23094;-76
2024/01/10 07:36:05;;;;;;;33.63;10.90;;;;;;;-141.50;100.00;63355.56;5035790;28;20084;-75
2024/01/10 07:38:32;;;;;;;33.88;11.13;;;;;;;-141.50;100.00;63355.56;5042664;28;20056;-76
2024/01/10 07:40:59;;;;;;;39.63;12.27;;;;;;;-141.50;100.00;63355.56;5031359;28;20098;-76
2024/01/10 07:43:27;;;;;;;32.30;10.70;;;;;;;-141.50;100.00;63355.56;5016719;28;20049;-76
2024/01/10 07:45:53;;;;;;;42.10;12.50;;;;;;;-141.50;100.00;63355.56;5032399;28;20113;-75
2024/01/10 07:48:20;;;;;;;39.50;11.95;;;;;;;-141.50;100.00;63355.56;5035425;28;20129;-76
2024/01/10 07:50:47;;;;;;;36.35;13.15;;;;;;;-141.50;100.00;63355.56;5054364;28;20045;-74
2024/01/10 07:53:14;;;;;;;35.53;12.20;;;;;;;-141.50;100.00;63355.56;5052618;28;20535;-76
2024/01/10 07:55:40;;;;;;;37.58;12.90;;;;;;;-141.50;100.00;63355.56;5052391;28;20060;-77
2024/01/10 07:58:07;;;;;;;42.35;12.43;;;;;;;-141.50;100.00;63355.56;5023232;28;20037;-76
2024/01/10 08:00:35;;;;;;;39.53;12.85;;;;;;;-141.50;100.00;63355.56;5028898;28;20452;-76
2024/01/10 08:03:02;;;;;;;39.55;13.10;;;;;;;-141.50;100.00;63355.56;5024599;28;20095;-76
2024/01/10 08:05:29;;;;;;;42.72;12.60;;;;;;;-141.50;100.00;63355.56;5022395;28;20041;-77
2024/01/10 08:07:56;;;;;;;38.63;12.73;;;;;;;-141.50;100.00;63355.56;5032323;28;20061;-76
2024/01/10 08:10:23;;;;;;;39.85;13.38;;;;;;;-141.50;100.00;63355.56;5032616;28;20075;-77
2024/01/10 08:12:50;;;;;;;33.67;11.88;;;;;;;-141.50;100.00;63355.56;5032408;28;20045;-76
2024/01/10 08:15:16;;;;;;;47.00;14.40;;;;;;;-141.50;100.00;63355.56;5046038;28;20051;-75
2024/01/10 08:17:43;;;;;;;52.13;15.77;;;;;;;-141.50;100.00;63355.56;5038982;28;20053;-77
2024/01/10 08:20:10;;;;;;;47.17;14.15;;;;;;;-141.50;100.00;63355.56;5019458;28;20467;-74
2024/01/10 08:22:38;;;;;;;49.13;15.25;;;;;;;-141.50;100.00;63355.56;5031979;28;20037;-76
2024/01/10 08:25:05;;;;;;;54.47;15.10;;;;;;;-141.50;100.00;63355.56;5041981;28;20071;-76
2024/01/10 08:27:35;;;;;;;48.00;15.75;;;;;;;-141.50;100.00;63355.56;5019062;28;20080;-76
2024/01/10 08:30:05;;;;;;;47.92;15.15;;;;;;;-141.50;100.00;63355.56;5031842;28;20049;-75
2024/01/10 08:32:33;;;;;;;42.65;15.10;;;;;;;-141.50;100.00;63355.56;5034344;28;20244;-77
2024/01/10 08:35:00;;;;;;;41.50;14.30;;;;;;;-141.50;100.00;63355.56;5045683;28;20040;-78
2024/01/10 08:37:26;;;;;;;39.28;13.32;;;;;;;-141.50;100.00;63355.56;5037807;28;20056;-76
2024/01/10 08:39:53;;;;;;;43.45;13.18;;;;;;;-141.50;100.00;63355.56;5042593;28;20049;-77
2024/01/10 08:42:20;;;;;;;38.83;12.55;;;;;;;-141.50;100.00;63355.56;5044841;28;20045;-77
2024/01/10 08:44:47;;;;;;;33.60;11.57;;;;;;;-141.50;100.00;63355.56;5042054;28;20033;-75
2024/01/10 08:47:14;;;;;;;36.67;11.55;;;;;;;-141.50;100.00;63355.56;5021719;28;20152;-77
2024/01/10 08:49:41;;;;;;;39.45;11.35;;;;;;;-141.50;100.00;63355.56;5047247;28;20132;-77
2024/01/10 08:52:08;;;;;;;30.20;11.10;;;;;;;-141.50;100.00;63355.56;5025504;28;20052;-76
2024/01/10 08:54:35;;;;;;;33.20;12.20;;;;;;;-141.50;100.00;63355.56;5027875;28;20045;-75
2024/01/10 08:57:03;;;;;;;31.40;11.25;;;;;;;-141.50;100.00;63355.56;5006150;28;20116;-74
2024/01/10 08:59:29;;;;;;;33.17;10.80;;;;;;;-141.50;100.00;63355.56;5039370;28;20103;-77
2024/01/10 09:01:56;;;;;;;42.47;12.85;;;;;;;-141.50;100.00;63355.56;5033010;28;20054;-77
2024/01/10 09:04:25;;;;;;;32.50;12.10;;;;;;;-141.50;100.00;63355.56;5039665;28;20092;-76
2024/01/10 09:06:52;;;;;;;35.55;12.32;;;;;;;-141.50;100.00;63355.56;5038987;28;20056;-77
2024/01/10 09:09:20;;;;;;;39.40;13.23;;;;;;;-141.50;100.00;63355.56;5040223;28;20053;-75
2024/01/10 09:11:48;;;;;;;38.13;12.88;;;;;;;-141.50;100.00;63355.56;5016190;28;20041;-75
2024/01/10 09:14:15;;;;;;;36.88;12.25;;;;;;;-141.50;100.00;63355.56;5029952;28;20532;-78
2024/01/10 09:16:41;;;;;;;37.45;12.43;;;;;;;-141.50;100.00;63355.56;5034400;28;20049;-77
2024/01/10 09:19:09;;;;;;;32.13;10.88;;;;;;;-141.50;100.00;63355.56;5040582;28;20033;-77
2024/01/10 09:21:37;;;;;;;34.47;11.43;;;;;;;-141.50;100.00;63355.56;5039128;28;20087;-77
2024/01/10 09:24:08;;;;;;;31.73;10.93;;;;;;;-141.50;100.00;63355.56;5023176;28;20052;-77
2024/01/10 09:26:53;;;;;;;30.05;11.48;;;;;;;-141.50;100.00;63355.56;5033260;28;20057;-77
2024/01/10 09:29:20;;;;;;;43.30;14.52;;;;;;;-141.50;100.00;63355.56;5030941;28;20064;-78
2024/01/10 09:31:47;;;;;;;37.10;13.07;;;;;;;-141.50;100.00;63355.56;5036184;28;20056;-75
2024/01/10 09:34:13;;;;;;;36.45;13.43;;;;;;;-141.50;100.00;63355.56;5030423;28;20045;-77
2024/01/10 09:36:40;;;;;;;37.13;13.50;;;;;;;-141.50;100.00;63355.56;5038353;28;20045;-76
2024/01/10 09:39:13;;;;;;;37.45;13.98;;;;;;;-141.50;100.00;63355.56;5034428;28;20037;-76
2024/01/10 09:41:50;;;;;;;40.67;13.63;;;;;;;-141.50;100.00;63355.56;5033198;28;20049;-77
2024/01/10 09:44:20;;;;;;;32.92;12.80;;;;;;;-141.50;100.00;63355.56;5057745;28;20052;-77
2024/01/10 09:46:54;;;;;;;38.15;12.80;;;;;;;-141.50;100.00;63355.56;5029185;28;20041;-76
2024/01/10 09:49:22;;;;;;;33.08;11.85;;;;;;;-141.50;100.00;63355.56;5037337;28;20049;-77
2024/01/10 09:51:53;;;;;;;31.45;10.93;;;;;;;-141.50;100.00;63355.56;5043058;28;20049;-76
2024/01/10 09:54:23;;;;;;;30.48;11.55;;;;;;;-141.50;100.00;63355.56;5037175;28;20091;-77
2024/01/10 09:56:49;;;;;;;33.80;11.85;;;;;;;-141.50;100.00;63355.56;5043136;28;20043;-77
2024/01/10 09:59:16;;;;;;;29.30;11.02;;;;;;;-141.50;100.00;63355.56;5031912;28;20447;-79
2024/01/10 10:01:43;;;;;;;31.23;11.10;;;;;;;-141.50;100.00;63355.56;5050187;28;20045;-76
2024/01/10 10:04:12;;;;;;;28.55;10.77;;;;;;;-141.50;100.00;63355.56;5039673;28;20044;-78
2024/01/10 10:06:39;;;;;;;31.55;11.02;;;;;;;-141.50;100.00;63355.56;5041607;28;20040;-77
2024/01/10 10:09:08;;;;;;;31.70;10.68;;;;;;;-141.50;100.00;63355.56;5045195;28;20041;-78
2024/01/10 10:11:34;;;;;;;32.67;11.73;;;;;;;-141.50;100.00;63355.56;5038115;28;20476;-78
2024/01/10 10:14:22;;;;;;;29.83;11.02;;;;;;;-141.50;100.00;63355.56;5050946;28;20858;-75
2024/01/10 10:16:49;;;;;;;31.17;9.63;;;;;;;-141.50;100.00;63355.56;5055536;28;20053;-78
2024/01/10 10:19:23;;;;;;;31.13;10.77;;;;;;;-141.50;100.00;63355.56;5060221;28;20044;-76
2024/01/10 10:22:10;;;;;;;25.65;9.00;;;;;;;-141.50;100.00;63355.56;5026803;28;20679;-77
2024/01/10 10:24:39;;;;;;;18.77;7.10;;;;;;;-141.50;100.00;63355.56;5036843;28;20451;-76
2024/01/10 10:27:10;;;;;;;25.90;8.82;;;;;;;-141.50;100.00;63355.56;5036991;28;20049;-77
2024/01/10 10:29:37;;;;;;;24.80;9.98;;;;;;;-141.50;100.00;63355.56;5039590;28;21569;-76
2024/01/10 10:32:06;;;;;;;23.58;8.85;;;;;;;-141.50;100.00;63355.56;5033112;28;20046;-76
2024/01/10 10:34:33;;;;;;;23.25;8.77;;;;;;;-141.50;100.00;63355.56;5042610;28;20519;-78
2024/01/10 10:37:01;;;;;;;24.17;9.25;;;;;;;-141.50;100.00;63355.56;5041804;28;20036;-77
2024/01/10 10:39:28;;;;;;;24.83;9.43;;;;;;;-141.50;100.00;63355.56;5036844;28;20084;-77
2024/01/10 10:41:57;;;;;;;23.27;9.35;;;;;;;-141.50;100.00;63355.56;5034620;28;20057;-76
2024/01/10 10:44:25;;;;;;;24.85;9.18;;;;;;;-141.50;100.00;63355.56;5044433;28;20036;-76
2024/01/10 10:47:03;;;;;;;24.63;9.05;;;;;;;-141.50;100.00;63355.56;5032094;28;20048;-77
2024/01/10 10:49:51;;;;;;;30.52;9.85;;;;;;;-141.50;100.00;63355.56;5028088;28;21816;-75
2024/01/10 10:52:19;;;;;;;22.88;9.23;;;;;;;-141.50;100.00;63355.56;5022667;28;20111;-76
2024/01/10 10:54:47;;;;;;;21.27;8.43;;;;;;;-141.50;100.00;63355.56;5026500;28;20052;-77
2024/01/10 10:57:16;;;;;;;27.20;8.05;;;;;;;-141.50;100.00;63355.56;5026236;28;20053;-78